createdAt,value
2023-05-18T00:01:15.018Z,3.38
2023-05-18T00:04:24.531Z,3.60
2023-05-18T00:07:34.452Z,3.28
2023-05-18T00:10:40.105Z,3.63
2023-05-18T00:13:45.591Z,3.17
2023-05-18T00:16:54.223Z,3.28
2023-05-18T00:19:59.883Z,3.03
2023-05-18T00:23:06.730Z,3.85
2023-05-18T00:26:12.372Z,3.15
2023-05-18T00:29:17.907Z,2.83
2023-05-18T00:32:25.884Z,2.58
2023-05-18T00:35:32.276Z,1.77
2023-05-18T00:38:37.728Z,2.10
2023-05-18T00:41:43.397Z,2.42
2023-05-18T00:44:48.826Z,2.30
2023-05-18T00:47:54.477Z,1.58
2023-05-18T00:50:59.919Z,2.28
2023-05-18T00:54:06.591Z,1.23
2023-05-18T00:57:12.351Z,1.30
2023-05-18T01:00:18.192Z,2.10
2023-05-18T01:03:25.360Z,1.13
2023-05-18T01:06:36.673Z,1.60
2023-05-18T01:09:43.365Z,1.23
2023-05-18T01:12:55.254Z,1.48
2023-05-18T01:19:36.388Z,1.50
2023-05-18T01:22:44.826Z,1.48
2023-05-18T01:25:56.280Z,1.48
2023-05-18T01:29:06.407Z,1.60
2023-05-18T01:32:20.478Z,2.00
2023-05-18T01:35:25.927Z,1.42
2023-05-18T01:38:32.094Z,2.20
2023-05-18T01:41:51.350Z,1.50
2023-05-18T01:45:07.958Z,2.08
2023-05-18T01:48:19.244Z,2.17
2023-05-18T01:51:31.724Z,2.38
2023-05-18T01:54:42.133Z,2.33
2023-05-18T01:57:50.211Z,2.50
2023-05-18T02:00:57.327Z,2.10
2023-05-18T02:04:03.569Z,2.08
2023-05-18T02:07:09.621Z,2.00
2023-05-18T02:10:15.779Z,2.40
2023-05-18T02:13:21.112Z,2.63
2023-05-18T02:16:26.345Z,1.92
2023-05-18T02:19:31.517Z,2.25
2023-05-18T02:22:37.416Z,1.83
2023-05-18T02:25:44.836Z,1.70
2023-05-18T02:28:52.137Z,1.73
2023-05-18T02:31:58.194Z,2.25
2023-05-18T02:35:07.039Z,1.55
2023-05-18T02:38:12.463Z,1.83
2023-05-18T02:41:18.409Z,1.15
2023-05-18T02:44:24.110Z,1.65
2023-05-18T02:47:29.731Z,1.45
2023-05-18T02:50:35.320Z,1.35
2023-05-18T02:53:40.873Z,1.27
2023-05-18T02:56:50.779Z,1.65
2023-05-18T03:00:12.239Z,1.30
2023-05-18T03:03:19.202Z,1.33
2023-05-18T03:06:27.177Z,1.30
2023-05-18T03:09:34.507Z,1.17
2023-05-18T03:12:42.339Z,1.30
2023-05-18T03:15:48.341Z,1.10
2023-05-18T03:18:54.668Z,2.13
2023-05-18T03:22:00.254Z,0.90
2023-05-18T03:25:06.386Z,1.15
2023-05-18T03:28:13.193Z,1.42
2023-05-18T03:31:18.949Z,1.92
2023-05-18T03:34:26.139Z,1.00
2023-05-18T03:37:32.280Z,1.42
2023-05-18T03:40:37.946Z,1.60
2023-05-18T03:43:44.027Z,1.40
2023-05-18T03:46:50.869Z,1.30
2023-05-18T03:49:56.576Z,1.25
2023-05-18T03:53:02.326Z,1.27
2023-05-18T03:56:08.949Z,1.00
2023-05-18T03:59:15.046Z,1.17
2023-05-18T04:02:21.740Z,1.27
2023-05-18T04:05:28.885Z,1.33
2023-05-18T04:08:34.780Z,1.02
2023-05-18T04:11:41.652Z,2.00
2023-05-18T04:14:51.179Z,1.92
2023-05-18T04:17:56.791Z,1.40
2023-05-18T04:21:03.591Z,1.25
2023-05-18T04:24:09.537Z,1.52
2023-05-18T04:27:15.639Z,1.25
2023-05-18T04:30:23.588Z,1.67
2023-05-18T04:33:30.832Z,1.63
2023-05-18T04:36:36.263Z,1.23
2023-05-18T04:39:42.426Z,1.30
2023-05-18T04:42:53.310Z,1.30
2023-05-18T04:46:07.699Z,1.20
2023-05-18T04:49:14.521Z,1.17
2023-05-18T04:52:21.434Z,1.27
2023-05-18T04:55:28.916Z,1.10
2023-05-18T04:58:38.278Z,1.30
2023-05-18T05:01:45.067Z,1.00
2023-05-18T05:04:50.765Z,1.15
2023-05-18T05:07:59.353Z,1.05
2023-05-18T05:11:05.096Z,1.00
2023-05-18T05:14:11.581Z,0.82
2023-05-18T05:17:18.099Z,0.90
2023-05-18T05:20:23.733Z,1.05
2023-05-18T05:23:29.759Z,1.15
2023-05-18T05:26:35.688Z,0.98
2023-05-18T05:29:41.316Z,1.02
2023-05-18T05:32:46.925Z,1.15
2023-05-18T05:35:52.317Z,0.70
2023-05-18T05:38:57.546Z,1.38
2023-05-18T05:42:02.505Z,0.90
2023-05-18T05:45:09.137Z,0.63
2023-05-18T05:48:21.877Z,1.13
2023-05-18T05:51:27.316Z,0.75
2023-05-18T05:54:33.178Z,0.88
2023-05-18T05:57:42.890Z,0.80
2023-05-18T06:00:49.034Z,1.35
2023-05-18T06:03:55.120Z,1.08
2023-05-18T06:07:02.003Z,0.88
2023-05-18T06:10:08.815Z,1.00
2023-05-18T06:13:14.801Z,0.85
2023-05-18T06:16:26.318Z,0.70
2023-05-18T06:19:32.064Z,1.02
2023-05-18T06:22:37.751Z,1.23
2023-05-18T06:25:54.378Z,1.30
2023-05-18T06:29:09.186Z,0.98
2023-05-18T06:32:50.111Z,1.65
2023-05-18T06:35:56.370Z,1.85
2023-05-18T06:39:02.042Z,1.05
2023-05-18T06:42:08.304Z,0.98
2023-05-18T06:45:14.335Z,1.85
2023-05-18T06:48:29.307Z,0.98
2023-05-18T06:51:35.350Z,1.58
2023-05-18T06:54:40.734Z,1.10
2023-05-18T06:57:46.522Z,1.30
2023-05-18T07:00:51.995Z,1.20
2023-05-18T07:03:57.607Z,0.88
2023-05-18T07:07:02.859Z,0.70
2023-05-18T07:10:08.887Z,0.73
2023-05-18T07:13:14.234Z,1.08
2023-05-18T07:16:20.346Z,1.17
2023-05-18T07:19:25.829Z,1.85
2023-05-18T07:22:31.911Z,1.00
2023-05-18T07:25:37.873Z,0.85
2023-05-18T07:28:43.801Z,0.82
2023-05-18T07:31:49.403Z,1.00
2023-05-18T07:34:54.805Z,0.70
2023-05-18T07:38:00.259Z,0.80
2023-05-18T07:41:05.566Z,1.10
2023-05-18T07:44:11.265Z,0.80
2023-05-18T07:47:17.232Z,1.90
2023-05-18T07:50:22.926Z,0.90
2023-05-18T07:53:28.980Z,0.65
2023-05-18T07:56:35.186Z,1.00
2023-05-18T07:59:40.460Z,0.93
2023-05-18T08:02:46.456Z,0.80
2023-05-18T08:05:52.330Z,0.75
2023-05-18T08:08:58.241Z,0.75
2023-05-18T08:12:03.924Z,1.20
2023-05-18T08:15:10.221Z,0.80
2023-05-18T08:18:15.986Z,0.85
2023-05-18T08:21:21.675Z,0.93
2023-05-18T08:24:27.284Z,0.80
2023-05-18T08:27:32.954Z,1.02
2023-05-18T08:30:38.439Z,0.77
2023-05-18T08:33:44.121Z,0.75
2023-05-18T08:36:50.698Z,1.05
2023-05-18T08:39:56.110Z,0.90
2023-05-18T08:43:12.106Z,0.90
2023-05-18T08:46:22.075Z,0.80
2023-05-18T08:49:28.807Z,0.90
2023-05-18T08:52:37.626Z,0.77
2023-05-18T08:55:45.792Z,0.75
2023-05-18T08:58:56.106Z,0.80
2023-05-18T09:02:01.681Z,0.93
2023-05-18T09:05:08.575Z,0.90
2023-05-18T09:08:15.026Z,0.80
2023-05-18T09:11:22.434Z,0.73
2023-05-18T09:14:28.010Z,0.77
2023-05-18T09:17:33.617Z,0.77
2023-05-18T09:20:39.162Z,0.80
2023-05-18T09:23:45.478Z,0.82
2023-05-18T09:26:51.806Z,0.70
2023-05-18T09:29:58.601Z,2.58
2023-05-18T09:33:04.298Z,1.00
2023-05-18T09:36:10.415Z,0.90
2023-05-18T09:39:16.249Z,1.05
2023-05-18T09:42:24.103Z,0.88
2023-05-18T09:45:29.960Z,1.10
2023-05-18T09:48:46.188Z,1.05
2023-05-18T09:51:51.406Z,1.30
2023-05-18T09:55:01.272Z,0.90
2023-05-18T09:58:08.395Z,1.20
2023-05-18T10:01:14.007Z,1.00
2023-05-18T10:04:20.437Z,1.33
2023-05-18T10:07:26.161Z,1.20
2023-05-18T10:10:32.064Z,0.80
2023-05-18T10:13:38.268Z,1.20
2023-05-18T10:16:44.951Z,1.40
2023-05-18T10:19:55.180Z,1.17
2023-05-18T10:23:05.802Z,1.55
2023-05-18T10:26:12.685Z,0.95
2023-05-18T10:29:18.391Z,1.30
2023-05-18T10:32:24.412Z,1.40
2023-05-18T10:35:30.555Z,1.20
2023-05-18T10:38:40.106Z,1.20
2023-05-18T10:41:47.242Z,1.30
2023-05-18T10:44:57.383Z,1.58
2023-05-18T10:48:06.042Z,1.50
2023-05-18T10:51:11.496Z,1.10
2023-05-18T10:54:17.247Z,1.95
2023-05-18T10:57:23.024Z,1.20
2023-05-18T11:00:31.190Z,1.40
2023-05-18T11:03:41.438Z,1.05
2023-05-18T11:06:55.407Z,1.05
2023-05-18T11:10:08.555Z,1.50
2023-05-18T11:13:15.450Z,1.10
2023-05-18T11:16:21.286Z,1.40
2023-05-18T11:19:27.464Z,1.13
2023-05-18T11:22:52.781Z,1.40
2023-05-18T11:26:05.007Z,1.98
2023-05-18T11:29:25.122Z,1.83
2023-05-18T11:32:33.142Z,1.08
2023-05-18T11:36:13.967Z,1.10
2023-05-18T11:39:25.610Z,1.17
2023-05-18T11:45:59.292Z,0.80
2023-05-18T11:49:08.168Z,0.77
2023-05-18T11:52:23.260Z,1.23
2023-05-18T11:55:41.431Z,0.93
2023-05-18T11:58:49.613Z,0.70
2023-05-18T12:02:01.428Z,0.75
2023-05-18T12:05:11.718Z,0.80
2023-05-18T12:08:22.205Z,0.60
2023-05-18T12:11:28.347Z,0.63
2023-05-18T12:14:36.454Z,0.88
2023-05-18T12:17:46.993Z,0.75
2023-05-18T12:20:53.747Z,1.02
2023-05-18T12:24:01.365Z,0.80
2023-05-18T12:27:08.850Z,0.90
2023-05-18T12:30:21.155Z,0.75
2023-05-18T12:33:26.367Z,0.75
2023-05-18T12:36:33.901Z,0.88
2023-05-18T12:43:00.426Z,0.90
2023-05-18T12:46:06.340Z,1.13
2023-05-18T12:49:11.501Z,0.70
2023-05-18T12:52:17.170Z,1.00
2023-05-18T12:55:23.474Z,0.95
2023-05-18T12:58:28.592Z,2.05
2023-05-18T13:01:44.529Z,0.82
2023-05-18T13:05:02.145Z,0.80
2023-05-18T13:08:08.571Z,0.70
2023-05-18T13:11:16.158Z,0.63
2023-05-18T13:14:23.607Z,0.60
2023-05-18T13:17:29.054Z,0.80
2023-05-18T13:20:40.442Z,0.70
2023-05-18T13:23:46.511Z,0.70
2023-05-18T13:26:52.133Z,1.40
2023-05-18T13:29:59.973Z,0.93
2023-05-18T13:33:08.436Z,1.02
2023-05-18T13:36:13.930Z,1.10
2023-05-18T13:39:19.416Z,0.70
2023-05-18T13:42:24.857Z,0.70
2023-05-18T13:45:31.390Z,0.75
2023-05-18T13:48:37.532Z,0.80
2023-05-18T13:51:43.146Z,0.95
2023-05-18T13:54:49.096Z,1.30
2023-05-18T13:57:54.747Z,2.38
2023-05-18T14:01:04.390Z,0.80
2023-05-18T14:04:09.658Z,0.70
2023-05-18T14:07:14.890Z,0.80
2023-05-18T14:10:21.145Z,1.27
2023-05-18T14:13:26.651Z,1.13
2023-05-18T14:16:32.174Z,0.80
2023-05-18T14:19:37.466Z,1.17
2023-05-18T14:22:42.815Z,1.10
2023-05-18T14:25:48.060Z,1.13
2023-05-18T14:28:53.432Z,0.80
2023-05-18T14:31:59.219Z,0.90
2023-05-18T14:35:05.404Z,0.90
2023-05-18T14:38:13.690Z,1.10
2023-05-18T14:41:19.263Z,1.10
2023-05-18T14:44:25.119Z,1.08
2023-05-18T14:47:31.088Z,1.63
2023-05-18T14:50:38.568Z,0.70
2023-05-18T14:53:44.710Z,1.02
2023-05-18T14:56:50.159Z,1.13
2023-05-18T14:59:55.645Z,1.00
2023-05-18T15:03:01.587Z,1.40
2023-05-18T15:06:07.130Z,1.60
2023-05-18T15:09:13.054Z,1.70
2023-05-18T15:12:20.077Z,1.50
2023-05-18T15:15:26.714Z,1.30
2023-05-18T15:18:32.425Z,1.35
2023-05-18T15:21:37.947Z,1.05
2023-05-18T15:24:43.317Z,1.08
2023-05-18T15:27:53.712Z,1.52
2023-05-18T15:30:59.413Z,1.23
2023-05-18T15:34:04.938Z,1.40
2023-05-18T15:37:10.541Z,1.13
2023-05-18T15:40:17.355Z,1.00
2023-05-18T15:43:24.276Z,1.23
2023-05-18T15:46:38.217Z,0.93
2023-05-18T15:49:43.495Z,1.75
2023-05-18T15:52:48.679Z,1.40
2023-05-18T15:55:58.793Z,0.88
2023-05-18T15:59:07.152Z,1.65
2023-05-18T16:02:12.294Z,1.40
2023-05-18T16:05:17.355Z,1.40
2023-05-18T16:08:22.783Z,1.35
2023-05-18T16:11:28.284Z,1.17
2023-05-18T16:14:34.139Z,1.20
2023-05-18T16:17:39.944Z,1.30
2023-05-18T16:20:45.828Z,1.00
2023-05-18T16:23:51.192Z,1.13
2023-05-18T16:26:56.794Z,1.42
2023-05-18T16:30:02.595Z,1.02
2023-05-18T16:33:08.299Z,0.77
2023-05-18T16:36:14.388Z,0.77
2023-05-18T16:39:21.193Z,1.00
2023-05-18T16:42:26.303Z,0.90
2023-05-18T16:45:31.849Z,1.30
2023-05-18T16:48:37.055Z,1.25
2023-05-18T16:51:42.294Z,0.82
2023-05-18T16:54:47.953Z,1.00
2023-05-18T16:57:53.286Z,0.70
2023-05-18T17:00:59.220Z,1.10
2023-05-18T17:04:04.793Z,0.88
2023-05-18T17:07:11.784Z,1.10
2023-05-18T17:10:17.613Z,0.98
2023-05-18T17:13:22.900Z,1.45
2023-05-18T17:16:28.729Z,1.15
2023-05-18T17:19:39.559Z,1.20
2023-05-18T17:22:45.114Z,0.80
2023-05-18T17:25:55.124Z,1.25
2023-05-18T17:29:06.967Z,0.90
2023-05-18T17:32:12.990Z,0.90
2023-05-18T17:35:18.264Z,1.20
2023-05-18T17:38:23.588Z,1.30
2023-05-18T17:41:29.458Z,1.00
2023-05-18T17:44:35.020Z,1.10
2023-05-18T17:47:42.078Z,1.45
2023-05-18T17:50:47.965Z,1.20
2023-05-18T17:53:53.275Z,1.00
2023-05-18T17:56:58.540Z,1.23
2023-05-18T18:00:06.344Z,1.38
2023-05-18T18:03:17.659Z,1.42
2023-05-18T18:06:23.824Z,1.23
2023-05-18T18:09:29.230Z,1.58
2023-05-18T18:12:34.901Z,1.75
2023-05-18T18:15:40.232Z,1.83
2023-05-18T18:18:45.878Z,1.73
2023-05-18T18:21:51.875Z,1.98
2023-05-18T18:24:57.680Z,1.60
2023-05-18T18:28:03.172Z,1.13
2023-05-18T18:31:08.845Z,1.50
2023-05-18T18:34:14.961Z,1.75
2023-05-18T18:37:20.349Z,1.67
2023-05-18T18:40:25.697Z,1.95
2023-05-18T18:43:31.710Z,2.17
2023-05-18T18:46:37.995Z,1.85
2023-05-18T18:49:43.562Z,1.90
2023-05-18T18:52:49.064Z,1.73
2023-05-18T18:55:55.894Z,2.10
2023-05-18T18:59:01.876Z,2.42
2023-05-18T19:02:07.091Z,1.90
2023-05-18T19:05:12.682Z,2.08
2023-05-18T19:08:18.457Z,1.55
2023-05-18T19:11:24.247Z,2.10
2023-05-18T19:14:29.771Z,1.80
2023-05-18T19:17:35.173Z,1.98
2023-05-18T19:20:40.310Z,2.00
2023-05-18T19:23:45.920Z,2.10
2023-05-18T19:26:50.926Z,1.83
2023-05-18T19:29:56.110Z,1.70
2023-05-18T19:33:01.683Z,1.40
2023-05-18T19:36:07.393Z,1.50
2023-05-18T19:39:13.129Z,1.40
2023-05-18T19:42:18.405Z,1.77
2023-05-18T19:45:24.297Z,1.83
2023-05-18T19:48:31.451Z,2.40
2023-05-18T19:51:37.331Z,3.40
2023-05-18T19:54:42.819Z,2.28
2023-05-18T19:57:48.507Z,2.40
2023-05-18T20:00:55.262Z,1.90
2023-05-18T20:04:01.126Z,2.33
2023-05-18T20:07:06.706Z,3.13
2023-05-18T20:10:11.995Z,2.67
2023-05-18T20:13:17.308Z,2.00
2023-05-18T20:16:22.972Z,1.67
2023-05-18T20:19:29.151Z,1.77
2023-05-18T20:22:34.934Z,1.88
2023-05-18T20:25:40.081Z,2.70
2023-05-18T20:28:45.155Z,2.20
2023-05-18T20:31:50.872Z,2.13
2023-05-18T20:34:56.658Z,2.20
2023-05-18T20:38:02.921Z,2.60
2023-05-18T20:41:09.887Z,2.78
2023-05-18T20:44:17.771Z,3.00
2023-05-18T20:47:23.480Z,3.13
2023-05-18T20:50:29.452Z,3.00
2023-05-18T20:53:35.246Z,3.05
2023-05-18T20:56:40.354Z,2.78
2023-05-18T20:59:45.325Z,2.72
2023-05-18T21:02:50.747Z,2.53
2023-05-18T21:05:56.842Z,3.30
2023-05-18T21:09:02.519Z,3.60
2023-05-18T21:12:07.984Z,3.40
2023-05-18T21:15:13.576Z,3.22
2023-05-18T21:18:19.007Z,3.80
2023-05-18T21:21:24.546Z,4.03
2023-05-18T21:24:29.967Z,4.05
2023-05-18T21:27:37.372Z,3.80
2023-05-18T21:30:43.017Z,3.72
2023-05-18T21:33:48.564Z,3.67
2023-05-18T21:36:54.078Z,3.97
2023-05-18T21:39:59.359Z,3.35
2023-05-18T21:43:04.951Z,3.38
2023-05-18T21:46:10.300Z,3.50
2023-05-18T21:49:15.570Z,5.13
2023-05-18T21:52:21.150Z,4.15
2023-05-18T21:55:26.917Z,4.13
2023-05-18T21:58:32.385Z,3.90
2023-05-18T22:01:37.504Z,3.25
2023-05-18T22:04:42.822Z,3.38
2023-05-18T22:07:49.443Z,3.85
2023-05-18T22:10:54.756Z,4.15
2023-05-18T22:14:01.118Z,3.58
2023-05-18T22:17:06.329Z,3.55
2023-05-18T22:20:11.985Z,3.88
2023-05-18T22:23:17.528Z,3.30
2023-05-18T22:26:23.046Z,3.38
2023-05-18T22:29:28.932Z,3.78
2023-05-18T22:32:35.020Z,3.03
2023-05-18T22:35:40.567Z,3.40
2023-05-18T22:38:46.385Z,2.95
2023-05-18T22:41:51.655Z,3.30
2023-05-18T22:44:56.882Z,3.08
2023-05-18T22:48:02.802Z,2.95
2023-05-18T22:51:08.844Z,3.17
2023-05-18T22:54:14.540Z,3.03
2023-05-18T22:57:20.183Z,3.05
2023-05-18T23:00:27.723Z,3.40
2023-05-18T23:03:32.935Z,3.00
2023-05-18T23:06:38.377Z,4.10
2023-05-18T23:09:43.752Z,2.90
2023-05-18T23:12:49.814Z,3.35
2023-05-18T23:15:56.486Z,3.60
2023-05-18T23:19:01.920Z,3.40
2023-05-18T23:22:07.488Z,4.40
2023-05-18T23:25:13.056Z,4.10
2023-05-18T23:28:19.510Z,4.05
2023-05-18T23:31:25.260Z,3.90
2023-05-18T23:34:32.430Z,4.25
2023-05-18T23:37:42.335Z,3.40
2023-05-18T23:40:47.725Z,3.95
2023-05-18T23:43:54.046Z,3.63
2023-05-18T23:46:59.404Z,3.67
2023-05-18T23:50:05.605Z,3.67
2023-05-18T23:53:12.716Z,3.20
2023-05-18T23:56:18.993Z,3.70
2023-05-18T23:59:25.573Z,3.65
